»·PEaware :: N21056 KSBA-KSMX

N21056 :: KSBA-KSMX

FLIGHT INFORMATION

Flight Status: Arrived
Operator: Privately registered:
United States
More flights under this callsign
Pilot: Erik K. (18332)
Aircraft: PILATUS PC-12 EAGLE
(PC12)
More flights by this aircraft type
Origin: KSBA Santa Barbara Mun
United States
Destination: KSMX Santa Maria Pub/Capt Hancock
United States
More flights between these airports :: More routes between these airports
Route: FLOUT5 RZS
File this flight plan on PilotEdge
Remarks: I 10 RATING
Altitude:
(Current/Filed)
6,000ft
Speed:
(Current/Filed)
250kts
Departed: 21-Oct-18 09:02 AM
Arrived: 21-Oct-18 09:27 AM
Distance/Time
Traveled:
41nm/0:25
Distance/Time
To Go:
Arrived

Flight Plot

Page will automatically refresh every two minutes.


Map Options




Map Legend


Flown Route
Filed Route
Departure Airport
Arrival Airport
Navaid (VOR, NDB)
Fix

Horizontal Profiles

Position Reports

Time Latitude Longitude Heading Altitude Ground
Speed
21-Oct-18 08:22 34.422651 -119.835588 340 10ft 0kts
21-Oct-18 08:23 34.422651 -119.835588 340 10ft 0kts
21-Oct-18 08:24 34.422651 -119.835588 340 10ft 0kts
21-Oct-18 08:25 34.422651 -119.835588 340 10ft 0kts
21-Oct-18 08:26 34.422651 -119.835588 340 10ft 0kts
21-Oct-18 08:27 34.422651 -119.835588 340 10ft 0kts
21-Oct-18 08:28 34.422651 -119.835588 340 10ft 0kts
21-Oct-18 08:29 34.422651 -119.835588 340 10ft 0kts
21-Oct-18 08:30 34.422651 -119.835588 340 10ft 0kts
21-Oct-18 08:31 34.422651 -119.835588 340 10ft 0kts
21-Oct-18 08:32 34.422651 -119.835588 340 10ft 0kts
21-Oct-18 08:33 34.422651 -119.835588 340 10ft 0kts
21-Oct-18 08:34 34.422651 -119.835588 340 10ft 0kts
21-Oct-18 08:35 34.422651 -119.835588 340 10ft 0kts
21-Oct-18 08:36 34.422651 -119.835588 340 10ft 0kts
21-Oct-18 08:37 34.422651 -119.835588 340 10ft 0kts
21-Oct-18 08:38 34.422651 -119.835588 340 10ft 0kts
21-Oct-18 08:39 34.422651 -119.835588 340 10ft 0kts
21-Oct-18 08:40 34.422651 -119.835588 340 10ft 0kts
21-Oct-18 08:41 34.422651 -119.835588 340 10ft 0kts
21-Oct-18 08:42 34.422651 -119.835588 340 10ft 0kts
21-Oct-18 08:43 34.422651 -119.835588 340 10ft 0kts
21-Oct-18 08:44 34.422651 -119.835588 340 10ft 0kts
21-Oct-18 08:45 34.422651 -119.835588 340 10ft 0kts
21-Oct-18 08:46 34.422651 -119.835588 340 10ft 0kts
21-Oct-18 08:47 34.422781 -119.836015 271 10ft 9kts
21-Oct-18 08:48 34.425866 -119.838075 346 11ft 14kts
21-Oct-18 08:49 34.426878 -119.834685 26 10ft 0kts
21-Oct-18 08:50 34.426878 -119.834685 26 10ft 0kts
21-Oct-18 08:51 34.426878 -119.834685 26 10ft 0kts
21-Oct-18 08:52 34.426878 -119.834685 26 10ft 0kts
21-Oct-18 08:53 34.426878 -119.834685 26 10ft 0kts
21-Oct-18 08:54 34.426878 -119.834685 26 10ft 0kts
21-Oct-18 08:55 34.426878 -119.834685 26 10ft 0kts
21-Oct-18 08:56 34.426878 -119.834685 26 10ft 0kts
21-Oct-18 08:57 34.426878 -119.834685 26 10ft 0kts
21-Oct-18 08:58 34.426878 -119.834685 26 10ft 0kts
21-Oct-18 08:59 34.426878 -119.834685 26 10ft 0kts
21-Oct-18 09:00 34.426878 -119.834685 26 10ft 0kts
21-Oct-18 09:01 34.426878 -119.834685 26 10ft 0kts
21-Oct-18 09:02 34.426878 -119.834685 26 10ft 0kts
21-Oct-18 09:03 34.427451 -119.834665 346 10ft 11kts
21-Oct-18 09:04 34.426938 -119.851661 261 447ft 126kts
21-Oct-18 09:05 34.395365 -119.865088 185 2058ft 181kts
21-Oct-18 09:06 34.349005 -119.881966 208 3320ft 188kts
21-Oct-18 09:07 34.329709 -119.934459 286 3873ft 190kts
21-Oct-18 09:08 34.363333 -119.976142 340 4662ft 195kts
21-Oct-18 09:09 34.403280 -119.941278 55 5026ft 205kts
21-Oct-18 09:10 34.432946 -119.885133 56 5529ft 205kts
21-Oct-18 09:11 34.461734 -119.827256 61 5994ft 207kts
21-Oct-18 09:12 34.501828 -119.777326 33 6019ft 218kts
21-Oct-18 09:13 34.539895 -119.805449 282 6022ft 207kts
21-Oct-18 09:14 34.556635 -119.866464 299 5972ft 167kts
21-Oct-18 09:15 34.575895 -119.907946 300 5987ft 146kts
21-Oct-18 09:16 34.601567 -119.961809 300 5991ft 218kts
21-Oct-18 09:17 34.633043 -120.027135 300 5991ft 234kts
21-Oct-18 09:18 34.663430 -120.090089 300 5985ft 189kts
21-Oct-18 09:19 34.687362 -120.139917 300 5988ft 161kts
21-Oct-18 09:20 34.708857 -120.184714 301 5989ft 150kts
21-Oct-18 09:21 34.728998 -120.226771 300 5986ft 135kts
21-Oct-18 09:22 34.746434 -120.267518 297 5993ft 139kts
21-Oct-18 09:23 34.771619 -120.301768 317 6001ft 149kts
21-Oct-18 09:24 34.801275 -120.336694 316 5668ft 161kts
21-Oct-18 09:25 34.827936 -120.368402 316 4635ft 97kts
21-Oct-18 09:26 34.846541 -120.390782 315 2947ft 95kts
21-Oct-18 09:27 34.864386 -120.412732 317 1491ft 96kts
21-Oct-18 09:28 34.883783 -120.435274 316 668ft 103kts
21-Oct-18 09:29 34.897972 -120.451920 331 265ft 22kts
21-Oct-18 09:30 34.898686 -120.450855 83 265ft 0kts
21-Oct-18 09:31 34.898684 -120.449973 90 265ft 13kts

Navigation Log

Ident Type
Flight plan parsing failed, navigation log unavailable